sensor_id;sensor_type;location;lat;lon;timestamp;pressure;altitude;pressure_sealevel;temperature;humidity
15634;BME280;14654;48.898;8.308;2023-04-03T00:01:05;101148.16;;;5.10;84.25
15634;BME280;14654;48.898;8.308;2023-04-03T00:03:31;101142.97;;;5.08;83.88
15634;BME280;14654;48.898;8.308;2023-04-03T00:05:57;101148.09;;;5.08;84.22
15634;BME280;14654;48.898;8.308;2023-04-03T00:08:23;101142.97;;;5.08;84.15
15634;BME280;14654;48.898;8.308;2023-04-03T00:10:48;101141.25;;;5.07;84.27
15634;BME280;14654;48.898;8.308;2023-04-03T00:13:14;101137.81;;;5.07;83.89
15634;BME280;14654;48.898;8.308;2023-04-03T00:15:40;101138.63;;;5.04;83.27
15634;BME280;14654;48.898;8.308;2023-04-03T00:18:06;101140.19;;;5.00;83.82
15634;BME280;14654;48.898;8.308;2023-04-03T00:20:31;101144.59;;;5.04;83.97
15634;BME280;14654;48.898;8.308;2023-04-03T00:22:57;101146.22;;;5.01;83.82
15634;BME280;14654;48.898;8.308;2023-04-03T00:25:22;101139.34;;;5.00;84.30
15634;BME280;14654;48.898;8.308;2023-04-03T00:27:48;101147.97;;;5.02;84.51
15634;BME280;14654;48.898;8.308;2023-04-03T00:30:16;101142.75;;;5.00;83.75
15634;BME280;14654;48.898;8.308;2023-04-03T00:32:42;101140.19;;;5.00;84.13
15634;BME280;14654;48.898;8.308;2023-04-03T00:35:07;101141.91;;;5.00;84.18
15634;BME280;14654;48.898;8.308;2023-04-03T00:37:33;101140.25;;;5.02;84.99
15634;BME280;14654;48.898;8.308;2023-04-03T00:39:58;101142.75;;;5.00;83.64
15634;BME280;14654;48.898;8.308;2023-04-03T00:42:24;101141.09;;;5.01;83.72
15634;BME280;14654;48.898;8.308;2023-04-03T00:47:22;101156.47;;;5.01;84.10
15634;BME280;14654;48.898;8.308;2023-04-03T00:49:48;101149.63;;;5.01;84.65
15634;BME280;14654;48.898;8.308;2023-04-03T00:52:17;101152.19;;;5.00;84.24
15634;BME280;14654;48.898;8.308;2023-04-03T00:54:46;101153.81;;;4.98;84.42
15634;BME280;14654;48.898;8.308;2023-04-03T00:57:13;101147.78;;;4.96;85.24
15634;BME280;14654;48.898;8.308;2023-04-03T00:59:43;101147.84;;;4.97;84.90
15634;BME280;14654;48.898;8.308;2023-04-03T01:02:10;101147.00;;;4.98;84.58
15634;BME280;14654;48.898;8.308;2023-04-03T01:04:40;101149.53;;;4.97;84.51
15634;BME280;14654;48.898;8.308;2023-04-03T01:07:13;101142.75;;;4.99;84.28
15634;BME280;14654;48.898;8.308;2023-04-03T01:09:40;101146.84;;;4.94;84.40
15634;BME280;14654;48.898;8.308;2023-04-03T01:14:49;101138.25;;;4.92;84.62
15634;BME280;14654;48.898;8.308;2023-04-03T01:17:28;101139.03;;;4.89;84.66
15634;BME280;14654;48.898;8.308;2023-04-03T01:23:12;101141.47;;;4.84;84.99
15634;BME280;14654;48.898;8.308;2023-04-03T01:25:52;101149.22;;;4.86;84.46
15634;BME280;14654;48.898;8.308;2023-04-03T01:28:33;101147.44;;;4.83;85.04
15634;BME280;14654;48.898;8.308;2023-04-03T01:31:21;101153.44;;;4.84;85.13
15634;BME280;14654;48.898;8.308;2023-04-03T01:33:48;101143.13;;;4.82;85.56
15634;BME280;14654;48.898;8.308;2023-04-03T01:36:20;101145.56;;;4.78;85.78
15634;BME280;14654;48.898;8.308;2023-04-03T01:38:47;101157.50;;;4.77;85.20
15634;BME280;14654;48.898;8.308;2023-04-03T01:41:12;101154.91;;;4.76;85.24
15634;BME280;14654;48.898;8.308;2023-04-03T01:43:38;101156.56;;;4.73;85.64
15634;BME280;14654;48.898;8.308;2023-04-03T01:46:03;101153.16;;;4.75;84.78
15634;BME280;14654;48.898;8.308;2023-04-03T01:48:28;101155.47;;;4.65;84.76
15634;BME280;14654;48.898;8.308;2023-04-03T01:50:54;101155.38;;;4.62;85.57
15634;BME280;14654;48.898;8.308;2023-04-03T01:53:19;101151.03;;;4.60;85.86
15634;BME280;14654;48.898;8.308;2023-04-03T01:55:45;101155.25;;;4.57;85.64
15634;BME280;14654;48.898;8.308;2023-04-03T01:58:10;101153.50;;;4.56;85.03
15634;BME280;14654;48.898;8.308;2023-04-03T02:00:35;101155.88;;;4.50;85.92
15634;BME280;14654;48.898;8.308;2023-04-03T02:03:01;101149.00;;;4.49;85.57
15634;BME280;14654;48.898;8.308;2023-04-03T02:05:26;101153.16;;;4.44;85.71
15634;BME280;14654;48.898;8.308;2023-04-03T02:07:52;101148.75;;;4.40;86.32
15634;BME280;14654;48.898;8.308;2023-04-03T02:10:17;101154.56;;;4.34;85.99
15634;BME280;14654;48.898;8.308;2023-04-03T02:12:43;101149.19;;;4.26;86.55
15634;BME280;14654;48.898;8.308;2023-04-03T02:15:09;101147.31;;;4.21;86.93
15634;BME280;14654;48.898;8.308;2023-04-03T02:17:34;101148.91;;;4.17;86.51
15634;BME280;14654;48.898;8.308;2023-04-03T02:20:00;101150.47;;;4.12;87.42
15634;BME280;14654;48.898;8.308;2023-04-03T02:22:25;101148.59;;;4.06;87.72
15634;BME280;14654;48.898;8.308;2023-04-03T02:24:51;101151.03;;;4.03;88.01
15634;BME280;14654;48.898;8.308;2023-04-03T02:27:17;101152.72;;;4.03;87.49
15634;BME280;14654;48.898;8.308;2023-04-03T02:29:42;101150.00;;;3.98;87.89
15634;BME280;14654;48.898;8.308;2023-04-03T02:32:07;101152.41;;;3.92;88.27
15634;BME280;14654;48.898;8.308;2023-04-03T02:34:33;101149.72;;;3.89;87.46
15634;BME280;14654;48.898;8.308;2023-04-03T02:36:58;101144.34;;;3.81;87.63
15634;BME280;14654;48.898;8.308;2023-04-03T02:39:23;101141.59;;;3.75;88.05
15634;BME280;14654;48.898;8.308;2023-04-03T02:41:49;101148.41;;;3.74;88.21
15634;BME280;14654;48.898;8.308;2023-04-03T02:44:14;101147.19;;;3.63;88.84
15634;BME280;14654;48.898;8.308;2023-04-03T02:46:39;101141.16;;;3.61;88.48
15634;BME280;14654;48.898;8.308;2023-04-03T02:49:05;101144.31;;;3.54;88.82
15634;BME280;14654;48.898;8.308;2023-04-03T02:51:30;101141.50;;;3.46;89.33
15634;BME280;14654;48.898;8.308;2023-04-03T02:53:56;101149.06;;;3.43;89.60
15634;BME280;14654;48.898;8.308;2023-04-03T02:56:21;101143.75;;;3.37;89.70
15634;BME280;14654;48.898;8.308;2023-04-03T02:58:47;101150.28;;;3.28;90.58
15634;BME280;14654;48.898;8.308;2023-04-03T03:01:13;101145.88;;;3.24;90.70
15634;BME280;14654;48.898;8.308;2023-04-03T03:03:38;101150.06;;;3.22;90.58
15634;BME280;14654;48.898;8.308;2023-04-03T03:06:05;101142.97;;;3.15;91.10
15634;BME280;14654;48.898;8.308;2023-04-03T03:08:32;101142.00;;;3.11;91.30
15634;BME280;14654;48.898;8.308;2023-04-03T03:10:57;101157.19;;;3.07;91.55
15634;BME280;14654;48.898;8.308;2023-04-03T03:13:23;101147.66;;;3.02;92.14
15634;BME280;14654;48.898;8.308;2023-04-03T03:15:48;101157.75;;;2.98;92.20
15634;BME280;14654;48.898;8.308;2023-04-03T03:18:14;101153.47;;;2.98;92.01
15634;BME280;14654;48.898;8.308;2023-04-03T03:20:39;101155.75;;;2.90;92.48
15634;BME280;14654;48.898;8.308;2023-04-03T03:23:05;101148.03;;;2.89;92.78
15634;BME280;14654;48.898;8.308;2023-04-03T03:25:30;101150.44;;;2.84;92.94
15634;BME280;14654;48.898;8.308;2023-04-03T03:27:55;101147.81;;;2.83;92.00
15634;BME280;14654;48.898;8.308;2023-04-03T03:30:21;101155.31;;;2.78;92.88
15634;BME280;14654;48.898;8.308;2023-04-03T03:32:46;101152.59;;;2.73;93.06
15634;BME280;14654;48.898;8.308;2023-04-03T03:35:11;101157.53;;;2.69;93.52
15634;BME280;14654;48.898;8.308;2023-04-03T03:37:37;101150.53;;;2.63;94.12
15634;BME280;14654;48.898;8.308;2023-04-03T03:40:02;101146.03;;;2.57;94.24
15634;BME280;14654;48.898;8.308;2023-04-03T03:42:27;101149.47;;;2.58;94.86
15634;BME280;14654;48.898;8.308;2023-04-03T03:44:53;101156.97;;;2.53;94.79
15634;BME280;14654;48.898;8.308;2023-04-03T03:47:18;101153.53;;;2.53;94.95
15634;BME280;14654;48.898;8.308;2023-04-03T03:49:43;101158.41;;;2.47;95.48
15634;BME280;14654;48.898;8.308;2023-04-03T03:52:08;101154.03;;;2.44;95.79
15634;BME280;14654;48.898;8.308;2023-04-03T03:54:36;101147.94;;;2.40;95.98
15634;BME280;14654;48.898;8.308;2023-04-03T03:57:01;101158.16;;;2.40;96.13
15634;BME280;14654;48.898;8.308;2023-04-03T03:59:26;101149.44;;;2.35;96.39
15634;BME280;14654;48.898;8.308;2023-04-03T04:01:52;101157.66;;;2.26;97.09
15634;BME280;14654;48.898;8.308;2023-04-03T04:04:17;101154.09;;;2.23;97.53
15634;BME280;14654;48.898;8.308;2023-04-03T04:06:43;101164.19;;;2.20;97.57
15634;BME280;14654;48.898;8.308;2023-04-03T04:09:09;101154.81;;;2.19;97.64
15634;BME280;14654;48.898;8.308;2023-04-03T04:11:34;101156.28;;;2.13;98.02
15634;BME280;14654;48.898;8.308;2023-04-03T04:13:59;101156.16;;;2.10;98.02
15634;BME280;14654;48.898;8.308;2023-04-03T04:16:25;101163.69;;;2.07;98.31
15634;BME280;14654;48.898;8.308;2023-04-03T04:18:50;101157.88;;;2.10;98.07
15634;BME280;14654;48.898;8.308;2023-04-03T04:21:15;101165.53;;;2.10;98.23
15634;BME280;14654;48.898;8.308;2023-04-03T04:23:41;101164.72;;;2.11;98.36
15634;BME280;14654;48.898;8.308;2023-04-03T04:26:06;101172.38;;;2.11;98.34
15634;BME280;14654;48.898;8.308;2023-04-03T04:28:31;101175.91;;;2.15;98.60
15634;BME280;14654;48.898;8.308;2023-04-03T04:30:57;101170.00;;;2.16;98.40
15634;BME280;14654;48.898;8.308;2023-04-03T04:33:22;101177.72;;;2.17;98.63
15634;BME280;14654;48.898;8.308;2023-04-03T04:35:48;101166.63;;;2.17;98.82
15634;BME280;14654;48.898;8.308;2023-04-03T04:38:13;101175.09;;;2.16;98.90
15634;BME280;14654;48.898;8.308;2023-04-03T04:40:39;101168.31;;;2.16;99.09
15634;BME280;14654;48.898;8.308;2023-04-03T04:43:05;101172.59;;;2.17;99.18
15634;BME280;14654;48.898;8.308;2023-04-03T04:45:31;101171.03;;;2.21;99.18
15634;BME280;14654;48.898;8.308;2023-04-03T04:47:56;101172.91;;;2.25;99.13
15634;BME280;14654;48.898;8.308;2023-04-03T04:50:22;101159.16;;;2.21;99.34
15634;BME280;14654;48.898;8.308;2023-04-03T04:52:47;101166.81;;;2.21;99.74
15634;BME280;14654;48.898;8.308;2023-04-03T04:55:12;101178.69;;;2.21;100.00
15634;BME280;14654;48.898;8.308;2023-04-03T04:57:38;101170.16;;;2.20;100.00
15634;BME280;14654;48.898;8.308;2023-04-03T05:00:04;101170.03;;;2.17;100.00
15634;BME280;14654;48.898;8.308;2023-04-03T05:02:30;101179.41;;;2.17;100.00
15634;BME280;14654;48.898;8.308;2023-04-03T05:04:56;101176.78;;;2.15;100.00
15634;BME280;14654;48.898;8.308;2023-04-03T05:07:21;101182.69;;;2.14;100.00
15634;BME280;14654;48.898;8.308;2023-04-03T05:09:47;101181.03;;;2.15;100.00
15634;BME280;14654;48.898;8.308;2023-04-03T05:12:12;101175.97;;;2.16;100.00
15634;BME280;14654;48.898;8.308;2023-04-03T05:14:37;101184.59;;;2.20;100.00
15634;BME280;14654;48.898;8.308;2023-04-03T05:17:03;101182.13;;;2.21;100.00
15634;BME280;14654;48.898;8.308;2023-04-03T05:19:28;101182.19;;;2.23;100.00
15634;BME280;14654;48.898;8.308;2023-04-03T05:21:53;101189.94;;;2.24;100.00
15634;BME280;14654;48.898;8.308;2023-04-03T05:24:19;101184.91;;;2.27;100.00
15634;BME280;14654;48.898;8.308;2023-04-03T05:26:44;101185.97;;;2.33;100.00
15634;BME280;14654;48.898;8.308;2023-04-03T05:29:10;101190.56;;;2.41;100.00
15634;BME280;14654;48.898;8.308;2023-04-03T05:31:35;101198.59;;;2.51;100.00
15634;BME280;14654;48.898;8.308;2023-04-03T05:34:01;101197.13;;;2.57;100.00
15634;BME280;14654;48.898;8.308;2023-04-03T05:36:26;101194.88;;;2.65;99.07
15634;BME280;14654;48.898;8.308;2023-04-03T05:38:52;101196.88;;;2.72;99.06
15634;BME280;14654;48.898;8.308;2023-04-03T05:41:18;101204.13;;;2.84;98.76
15634;BME280;14654;48.898;8.308;2023-04-03T05:43:44;101207.53;;;3.08;97.54
15634;BME280;14654;48.898;8.308;2023-04-03T05:46:14;101201.50;;;3.30;96.46
15634;BME280;14654;48.898;8.308;2023-04-03T05:48:40;101202.13;;;3.48;95.36
15634;BME280;14654;48.898;8.308;2023-04-03T05:51:07;101208.97;;;3.74;93.39
15634;BME280;14654;48.898;8.308;2023-04-03T05:53:35;101204.84;;;4.03;90.21
15634;BME280;14654;48.898;8.308;2023-04-03T05:56:02;101203.94;;;4.29;88.36
15634;BME280;14654;48.898;8.308;2023-04-03T05:58:28;101202.69;;;4.17;87.65
15634;BME280;14654;48.898;8.308;2023-04-03T06:00:53;101204.75;;;4.02;88.12
15634;BME280;14654;48.898;8.308;2023-04-03T06:03:18;101209.97;;;3.77;87.68
15634;BME280;14654;48.898;8.308;2023-04-03T06:05:44;101210.66;;;3.73;88.22
15634;BME280;14654;48.898;8.308;2023-04-03T06:08:09;101218.13;;;3.67;88.31
15634;BME280;14654;48.898;8.308;2023-04-03T06:10:35;101213.91;;;3.68;88.35
15634;BME280;14654;48.898;8.308;2023-04-03T06:13:01;101220.84;;;3.72;87.89
15634;BME280;14654;48.898;8.308;2023-04-03T06:15:27;101222.63;;;3.99;88.08
15634;BME280;14654;48.898;8.308;2023-04-03T06:17:53;101216.16;;;4.10;86.85
15634;BME280;14654;48.898;8.308;2023-04-03T06:20:18;101220.06;;;4.26;85.84
15634;BME280;14654;48.898;8.308;2023-04-03T06:22:44;101221.09;;;4.31;85.37
15634;BME280;14654;48.898;8.308;2023-04-03T06:25:09;101223.78;;;4.36;85.88
15634;BME280;14654;48.898;8.308;2023-04-03T06:27:35;101218.56;;;4.33;85.18
15634;BME280;14654;48.898;8.308;2023-04-03T06:30:00;101226.69;;;4.47;84.41
15634;BME280;14654;48.898;8.308;2023-04-03T06:32:25;101226.56;;;4.42;83.65
15634;BME280;14654;48.898;8.308;2023-04-03T06:34:51;101232.91;;;4.55;82.58
15634;BME280;14654;48.898;8.308;2023-04-03T06:37:21;101224.56;;;4.90;82.56
15634;BME280;14654;48.898;8.308;2023-04-03T06:39:47;101216.03;;;5.21;82.01
15634;BME280;14654;48.898;8.308;2023-04-03T06:42:12;101222.34;;;5.64;79.33
15634;BME280;14654;48.898;8.308;2023-04-03T06:44:38;101223.72;;;6.17;76.66
15634;BME280;14654;48.898;8.308;2023-04-03T06:47:03;101236.41;;;6.48;75.87
15634;BME280;14654;48.898;8.308;2023-04-03T06:49:29;101227.63;;;6.78;74.86
15634;BME280;14654;48.898;8.308;2023-04-03T06:51:55;101225.94;;;6.78;73.74
15634;BME280;14654;48.898;8.308;2023-04-03T06:54:22;101235.34;;;6.76;74.03
15634;BME280;14654;48.898;8.308;2023-04-03T06:56:47;101231.13;;;6.80;73.88
15634;BME280;14654;48.898;8.308;2023-04-03T06:59:13;101229.22;;;6.71;74.35
15634;BME280;14654;48.898;8.308;2023-04-03T07:01:39;101244.97;;;6.86;74.51
15634;BME280;14654;48.898;8.308;2023-04-03T07:04:05;101258.59;;;6.82;74.42
15634;BME280;14654;48.898;8.308;2023-04-03T07:06:31;101221.97;;;6.93;74.18
15634;BME280;14654;48.898;8.308;2023-04-03T07:08:58;101234.59;;;6.82;74.77
15634;BME280;14654;48.898;8.308;2023-04-03T07:11:24;101223.81;;;6.98;75.32
15634;BME280;14654;48.898;8.308;2023-04-03T07:13:50;101226.72;;;6.74;75.10
15634;BME280;14654;48.898;8.308;2023-04-03T07:16:16;101230.53;;;6.53;75.74
15634;BME280;14654;48.898;8.308;2023-04-03T07:18:41;101227.34;;;6.64;75.97
15634;BME280;14654;48.898;8.308;2023-04-03T07:21:07;101244.09;;;6.46;76.43
15634;BME280;14654;48.898;8.308;2023-04-03T07:23:32;101246.78;;;6.51;77.30
15634;BME280;14654;48.898;8.308;2023-04-03T07:25:58;101244.94;;;6.47;77.14
15634;BME280;14654;48.898;8.308;2023-04-03T07:28:24;101255.84;;;6.35;78.04
15634;BME280;14654;48.898;8.308;2023-04-03T07:30:54;101256.03;;;6.43;77.60
15634;BME280;14654;48.898;8.308;2023-04-03T07:33:24;101248.34;;;6.46;78.17
15634;BME280;14654;48.898;8.308;2023-04-03T07:35:50;101255.28;;;6.48;77.78
15634;BME280;14654;48.898;8.308;2023-04-03T07:38:16;101258.25;;;6.65;77.55
15634;BME280;14654;48.898;8.308;2023-04-03T07:40:46;101262.53;;;6.65;76.46
15634;BME280;14654;48.898;8.308;2023-04-03T07:43:12;101267.53;;;6.59;78.11
15634;BME280;14654;48.898;8.308;2023-04-03T07:45:37;101257.53;;;6.36;77.05
15634;BME280;14654;48.898;8.308;2023-04-03T07:48:03;101267.84;;;6.36;77.63
15634;BME280;14654;48.898;8.308;2023-04-03T07:50:28;101262.41;;;6.23;78.73
15634;BME280;14654;48.898;8.308;2023-04-03T07:52:55;101275.44;;;6.31;79.42
15634;BME280;14654;48.898;8.308;2023-04-03T07:55:22;101270.84;;;6.18;78.73
15634;BME280;14654;48.898;8.308;2023-04-03T07:57:48;101273.78;;;6.33;79.17
15634;BME280;14654;48.898;8.308;2023-04-03T08:00:14;101284.50;;;6.52;79.62
15634;BME280;14654;48.898;8.308;2023-04-03T08:02:39;101276.03;;;6.56;78.63
15634;BME280;14654;48.898;8.308;2023-04-03T08:05:05;101284.41;;;6.47;77.12
15634;BME280;14654;48.898;8.308;2023-04-03T08:07:30;101279.16;;;6.43;77.52
15634;BME280;14654;48.898;8.308;2023-04-03T08:09:57;101291.06;;;6.39;77.58
15634;BME280;14654;48.898;8.308;2023-04-03T08:12:22;101272.59;;;6.20;76.68
15634;BME280;14654;48.898;8.308;2023-04-03T08:14:47;101278.53;;;6.18;77.75
15634;BME280;14654;48.898;8.308;2023-04-03T08:17:13;101278.59;;;6.19;79.46
15634;BME280;14654;48.898;8.308;2023-04-03T08:19:39;101282.22;;;6.28;79.28
15634;BME280;14654;48.898;8.308;2023-04-03T08:22:05;101279.94;;;6.40;78.37
15634;BME280;14654;48.898;8.308;2023-04-03T08:24:32;101275.53;;;6.34;78.10
15634;BME280;14654;48.898;8.308;2023-04-03T08:26:58;101278.00;;;6.31;77.99
15634;BME280;14654;48.898;8.308;2023-04-03T08:29:24;101273.16;;;6.44;77.64
15634;BME280;14654;48.898;8.308;2023-04-03T08:31:50;101268.44;;;6.61;78.69
15634;BME280;14654;48.898;8.308;2023-04-03T08:34:15;101273.88;;;6.75;76.75
15634;BME280;14654;48.898;8.308;2023-04-03T08:36:41;101282.66;;;6.83;77.09
15634;BME280;14654;48.898;8.308;2023-04-03T08:39:06;101283.66;;;6.90;76.10
15634;BME280;14654;48.898;8.308;2023-04-03T08:41:35;101279.97;;;6.78;75.74
15634;BME280;14654;48.898;8.308;2023-04-03T08:49:56;101272.28;;;7.62;73.06
15634;BME280;14654;48.898;8.308;2023-04-03T08:54:51;101279.66;;;8.42;72.28
15634;BME280;14654;48.898;8.308;2023-04-03T08:57:23;101275.25;;;8.36;71.68
15634;BME280;14654;48.898;8.308;2023-04-03T08:59:51;101272.63;;;8.32;70.59
15634;BME280;14654;48.898;8.308;2023-04-03T09:02:34;101287.00;;;8.17;70.53
15634;BME280;14654;48.898;8.308;2023-04-03T09:05:05;101268.94;;;8.17;71.61
15634;BME280;14654;48.898;8.308;2023-04-03T09:07:42;101280.88;;;8.12;71.91
15634;BME280;14654;48.898;8.308;2023-04-03T09:10:11;101278.91;;;7.97;71.07
15634;BME280;14654;48.898;8.308;2023-04-03T09:12:39;101281.66;;;8.06;71.23
15634;BME280;14654;48.898;8.308;2023-04-03T09:15:20;101281.91;;;8.22;71.27
15634;BME280;14654;48.898;8.308;2023-04-03T09:18:06;101267.56;;;8.39;70.06
15634;BME280;14654;48.898;8.308;2023-04-03T09:25:45;101275.91;;;8.77;69.51
15634;BME280;14654;48.898;8.308;2023-04-03T09:28:10;101269.56;;;8.54;68.45
15634;BME280;14654;48.898;8.308;2023-04-03T09:30:37;101269.72;;;8.13;69.00
15634;BME280;14654;48.898;8.308;2023-04-03T09:33:03;101266.03;;;7.97;69.63
15634;BME280;14654;48.898;8.308;2023-04-03T09:35:37;101269.22;;;7.84;69.40
15634;BME280;14654;48.898;8.308;2023-04-03T09:40:45;101270.25;;;7.46;70.06
15634;BME280;14654;48.898;8.308;2023-04-03T09:45:44;101279.78;;;7.98;68.63
15634;BME280;14654;48.898;8.308;2023-04-03T09:50:55;101288.81;;;8.24;67.82
15634;BME280;14654;48.898;8.308;2023-04-03T09:53:44;101280.16;;;8.21;67.67
15634;BME280;14654;48.898;8.308;2023-04-03T09:58:43;101268.06;;;8.17;66.98
15634;BME280;14654;48.898;8.308;2023-04-03T10:04:11;101266.28;;;8.13;66.97
15634;BME280;14654;48.898;8.308;2023-04-03T10:09:31;101269.38;;;8.45;66.65
15634;BME280;14654;48.898;8.308;2023-04-03T10:12:08;101273.88;;;8.56;66.20
15634;BME280;14654;48.898;8.308;2023-04-03T10:22:56;101254.22;;;8.65;66.90
15634;BME280;14654;48.898;8.308;2023-04-03T10:28:27;101260.22;;;8.63;65.39
15634;BME280;14654;48.898;8.308;2023-04-03T10:31:23;101253.09;;;8.48;66.98
15634;BME280;14654;48.898;8.308;2023-04-03T10:37:19;101255.25;;;8.21;66.46
15634;BME280;14654;48.898;8.308;2023-04-03T10:42:46;101250.34;;;8.37;64.72
15634;BME280;14654;48.898;8.308;2023-04-03T10:45:57;101256.28;;;8.33;64.68
15634;BME280;14654;48.898;8.308;2023-04-03T10:51:19;101246.94;;;8.38;64.47
15634;BME280;14654;48.898;8.308;2023-04-03T10:53:57;101234.78;;;8.32;63.12
15634;BME280;14654;48.898;8.308;2023-04-03T10:56:47;101236.38;;;8.22;63.01
15634;BME280;14654;48.898;8.308;2023-04-03T10:59:36;101244.78;;;8.66;63.64
15634;BME280;14654;48.898;8.308;2023-04-03T11:05:06;101235.03;;;9.09;61.61
15634;BME280;14654;48.898;8.308;2023-04-03T11:07:40;101268.50;;;9.03;61.72
15634;BME280;14654;48.898;8.308;2023-04-03T11:10:19;101234.78;;;8.89;60.56
15634;BME280;14654;48.898;8.308;2023-04-03T11:13:02;101233.25;;;9.05;60.87
15634;BME280;14654;48.898;8.308;2023-04-03T11:15:32;101247.19;;;9.18;61.18
15634;BME280;14654;48.898;8.308;2023-04-03T11:18:02;101240.16;;;9.08;59.35
15634;BME280;14654;48.898;8.308;2023-04-03T11:20:31;101240.06;;;8.98;60.04
15634;BME280;14654;48.898;8.308;2023-04-03T11:23:29;101248.69;;;9.00;60.46
15634;BME280;14654;48.898;8.308;2023-04-03T11:26:01;101234.84;;;8.94;60.69
15634;BME280;14654;48.898;8.308;2023-04-03T11:28:32;101222.72;;;8.88;60.30
15634;BME280;14654;48.898;8.308;2023-04-03T11:31:33;101223.31;;;8.70;60.80
15634;BME280;14654;48.898;8.308;2023-04-03T11:36:45;101228.56;;;8.75;60.73
15634;BME280;14654;48.898;8.308;2023-04-03T11:39:22;101213.19;;;8.84;60.90
15634;BME280;14654;48.898;8.308;2023-04-03T11:41:49;101239.00;;;8.82;59.77
15634;BME280;14654;48.898;8.308;2023-04-03T11:44:30;101220.25;;;8.96;60.75
15634;BME280;14654;48.898;8.308;2023-04-03T11:46:58;101217.63;;;8.93;60.10
15634;BME280;14654;48.898;8.308;2023-04-03T11:58:02;101207.69;;;9.27;59.73
15634;BME280;14654;48.898;8.308;2023-04-03T12:16:32;101245.78;;;8.76;60.34
15634;BME280;14654;48.898;8.308;2023-04-03T12:29:23;101198.69;;;8.95;59.98
15634;BME280;14654;48.898;8.308;2023-04-03T12:34:33;101205.84;;;9.15;60.22
15634;BME280;14654;48.898;8.308;2023-04-03T12:37:08;101196.88;;;8.85;59.06
15634;BME280;14654;48.898;8.308;2023-04-03T12:39:48;101218.16;;;8.68;60.50
15634;BME280;14654;48.898;8.308;2023-04-03T12:44:49;101204.34;;;8.65;61.45
15634;BME280;14654;48.898;8.308;2023-04-03T12:47:29;101194.28;;;8.85;61.17
15634;BME280;14654;48.898;8.308;2023-04-03T12:49:59;101188.38;;;8.95;61.19
15634;BME280;14654;48.898;8.308;2023-04-03T12:52:33;101202.97;;;8.92;60.40
15634;BME280;14654;48.898;8.308;2023-04-03T12:55:01;101191.91;;;9.00;60.52
15634;BME280;14654;48.898;8.308;2023-04-03T12:57:30;101194.56;;;9.08;60.66
15634;BME280;14654;48.898;8.308;2023-04-03T12:59:57;101193.84;;;9.20;61.19
15634;BME280;14654;48.898;8.308;2023-04-03T13:02:31;101197.22;;;9.14;62.23
15634;BME280;14654;48.898;8.308;2023-04-03T13:04:59;101192.91;;;9.13;60.86
15634;BME280;14654;48.898;8.308;2023-04-03T13:07:32;101202.97;;;8.93;60.35
15634;BME280;14654;48.898;8.308;2023-04-03T13:12:33;101190.13;;;8.96;61.64
15634;BME280;14654;48.898;8.308;2023-04-03T13:15:03;101212.34;;;8.83;61.31
15634;BME280;14654;48.898;8.308;2023-04-03T13:17:29;101190.75;;;8.78;61.49
15634;BME280;14654;48.898;8.308;2023-04-03T13:19:55;101202.03;;;8.83;61.13
15634;BME280;14654;48.898;8.308;2023-04-03T13:24:53;101184.91;;;8.90;60.44
15634;BME280;14654;48.898;8.308;2023-04-03T13:27:19;101187.44;;;8.87;60.68
15634;BME280;14654;48.898;8.308;2023-04-03T13:29:49;101189.22;;;8.93;61.55
15634;BME280;14654;48.898;8.308;2023-04-03T13:32:20;101182.47;;;9.04;61.04
15634;BME280;14654;48.898;8.308;2023-04-03T13:34:46;101200.59;;;9.09;61.87
15634;BME280;14654;48.898;8.308;2023-04-03T13:42:29;101183.66;;;8.63;60.84
15634;BME280;14654;48.898;8.308;2023-04-03T13:45:20;101186.28;;;8.66;60.64
15634;BME280;14654;48.898;8.308;2023-04-03T13:47:47;101181.50;;;8.96;60.62
15634;BME280;14654;48.898;8.308;2023-04-03T13:52:53;101171.94;;;8.89;60.12
15634;BME280;14654;48.898;8.308;2023-04-03T13:55:28;101188.31;;;8.91;60.24
15634;BME280;14654;48.898;8.308;2023-04-03T13:58:00;101193.38;;;8.81;59.86
15634;BME280;14654;48.898;8.308;2023-04-03T14:00:34;101180.13;;;8.55;60.28
15634;BME280;14654;48.898;8.308;2023-04-03T14:03:00;101184.34;;;8.50;60.36
15634;BME280;14654;48.898;8.308;2023-04-03T14:05:25;101188.47;;;8.40;60.27
15634;BME280;14654;48.898;8.308;2023-04-03T14:07:53;101180.88;;;8.48;61.39
15634;BME280;14654;48.898;8.308;2023-04-03T14:10:18;101186.34;;;8.69;61.22
15634;BME280;14654;48.898;8.308;2023-04-03T14:12:44;101175.28;;;8.78;60.57
15634;BME280;14654;48.898;8.308;2023-04-03T14:15:23;101180.72;;;9.03;60.63
15634;BME280;14654;48.898;8.308;2023-04-03T14:17:50;101168.81;;;9.16;59.46
15634;BME280;14654;48.898;8.308;2023-04-03T14:20:19;101168.03;;;9.20;58.61
15634;BME280;14654;48.898;8.308;2023-04-03T14:22:45;101180.75;;;9.06;57.44
15634;BME280;14654;48.898;8.308;2023-04-03T14:25:11;101176.47;;;9.07;58.03
15634;BME280;14654;48.898;8.308;2023-04-03T14:27:40;101166.28;;;9.19;58.42
15634;BME280;14654;48.898;8.308;2023-04-03T14:30:09;101166.13;;;9.05;57.40
15634;BME280;14654;48.898;8.308;2023-04-03T14:32:38;101151.59;;;9.15;58.76
15634;BME280;14654;48.898;8.308;2023-04-03T14:35:03;101157.00;;;9.38;59.64
15634;BME280;14654;48.898;8.308;2023-04-03T14:37:30;101154.34;;;9.30;57.50
15634;BME280;14654;48.898;8.308;2023-04-03T14:39:57;101144.94;;;9.37;58.78
15634;BME280;14654;48.898;8.308;2023-04-03T14:42:27;101146.72;;;9.43;58.33
15634;BME280;14654;48.898;8.308;2023-04-03T14:44:52;101156.72;;;9.12;56.70
15634;BME280;14654;48.898;8.308;2023-04-03T14:47:21;101153.22;;;9.05;57.06
15634;BME280;14654;48.898;8.308;2023-04-03T14:49:47;101154.81;;;8.95;57.67
15634;BME280;14654;48.898;8.308;2023-04-03T14:52:38;101144.38;;;8.84;57.95
15634;BME280;14654;48.898;8.308;2023-04-03T14:55:05;101156.31;;;8.78;58.86
15634;BME280;14654;48.898;8.308;2023-04-03T14:57:31;101152.94;;;8.82;58.88
15634;BME280;14654;48.898;8.308;2023-04-03T14:59:57;101143.50;;;8.82;58.32
15634;BME280;14654;48.898;8.308;2023-04-03T15:02:29;101142.66;;;8.83;58.73